Time;durP1;ratioP1;P1;durP2;ratioP2;P2;SDS_P1;SDS_P2;PMS_P1;PMS_P2;Temp;Humidity;BMP_temperature;BMP_pressure;BME280_temperature;BME280_humidity;BME280_pressure;Samples;Min_cycle;Max_cycle;Signal;HPM_P1;HPM_P2
2022/08/26 00:01:12;;;;;;;24.45;8.30;;;25.20;94.10;;;;;;4956281;28;20035;-74
2022/08/26 00:03:38;;;;;;;22.42;9.02;;;25.10;94.20;;;;;;4955487;28;20039;-74
2022/08/26 00:06:05;;;;;;;13.02;7.00;;;25.10;94.30;;;;;;4973279;28;20046;-73
2022/08/26 00:08:32;;;;;;;13.05;6.50;;;25.10;94.40;;;;;;4954151;28;20042;-74
2022/08/26 00:10:57;;;;;;;15.85;7.63;;;25.10;94.40;;;;;;4971583;28;20051;-74
2022/08/26 00:13:24;;;;;;;16.58;8.07;;;25.00;94.30;;;;;;4971154;28;20035;-74
2022/08/26 00:15:50;;;;;;;19.25;7.85;;;25.00;94.30;;;;;;4958989;28;20043;-73
2022/08/26 00:18:17;;;;;;;18.40;7.50;;;25.00;94.40;;;;;;4954505;28;20434;-73
2022/08/26 00:20:44;;;;;;;18.02;7.25;;;25.00;94.50;;;;;;4952782;28;20054;-73
2022/08/26 00:23:11;;;;;;;17.63;7.55;;;25.00;94.60;;;;;;4968878;28;20027;-74
2022/08/26 00:25:37;;;;;;;12.90;7.88;;;24.90;94.30;;;;;;4967819;28;20038;-73
2022/08/26 00:28:04;;;;;;;12.40;8.43;;;24.90;94.40;;;;;;4952643;28;20390;-74
2022/08/26 00:30:30;;;;;;;24.42;7.68;;;24.90;94.70;;;;;;4967384;28;20032;-74
2022/08/26 00:33:00;;;;;;;16.42;8.15;;;24.90;94.50;;;;;;4952163;28;20122;-74
2022/08/26 00:35:28;;;;;;;22.00;7.93;;;24.80;94.60;;;;;;4953163;28;20478;-73
2022/08/26 00:37:54;;;;;;;;;;;24.80;95.00;;;;;;4968902;28;20042;-73
2022/08/26 00:40:25;;;;;;;17.48;7.68;;;24.80;94.90;;;;;;4952962;28;19965;-74
2022/08/26 00:42:51;;;;;;;23.15;7.80;;;24.70;95.20;;;;;;4971433;28;20027;-75
2022/08/26 00:45:18;;;;;;;16.95;8.45;;;24.70;95.30;;;;;;4955657;28;20027;-75
2022/08/26 00:47:51;;;;;;;17.85;7.55;;;24.80;95.20;;;;;;4956391;28;20042;-75
2022/08/26 00:50:21;;;;;;;17.20;7.78;;;24.80;95.30;;;;;;4971581;28;20019;-74
2022/08/26 00:52:49;;;;;;;15.88;8.20;;;24.80;95.30;;;;;;4972132;28;20426;-73
2022/08/26 00:55:41;;;;;;;13.75;8.25;;;24.70;95.50;;;;;;4970914;28;20086;-75
2022/08/26 00:58:08;;;;;;;18.42;7.50;;;24.60;95.60;;;;;;4970537;28;20031;-75
2022/08/26 01:00:34;;;;;;;14.75;7.53;;;24.60;95.70;;;;;;4955956;28;20039;-74
2022/08/26 01:03:01;;;;;;;24.88;8.23;;;24.50;96.00;;;;;;4955758;28;20049;-72
2022/08/26 01:05:28;;;;;;;19.25;8.27;;;24.50;95.90;;;;;;4955547;28;20094;-74
2022/08/26 01:07:54;;;;;;;17.35;8.60;;;24.60;95.80;;;;;;4971582;28;20029;-74
2022/08/26 01:10:23;;;;;;;20.25;8.43;;;24.50;95.90;;;;;;4955035;28;20055;-74
2022/08/26 01:12:54;;;;;;;19.35;8.02;;;24.50;96.10;;;;;;4969730;28;20500;-74
2022/08/26 01:15:29;;;;;;;22.75;9.65;;;24.50;95.90;;;;;;4970697;28;20039;-74
2022/08/26 01:17:57;;;;;;;18.15;8.27;;;24.60;96.00;;;;;;4970711;28;20039;-73
2022/08/26 01:20:54;;;;;;;16.75;8.60;;;24.50;95.90;;;;;;4970731;28;20118;-75
2022/08/26 01:23:20;;;;;;;26.95;8.15;;;24.60;96.00;;;;;;4955431;28;20030;-73
2022/08/26 01:25:51;;;;;;;22.13;7.88;;;24.50;96.00;;;;;;4955741;28;20019;-73
2022/08/26 01:28:25;;;;;;;14.70;7.75;;;24.40;96.20;;;;;;4970334;28;20050;-74
2022/08/26 01:30:53;;;;;;;17.17;7.32;;;24.30;96.50;;;;;;4970335;28;20159;-74
2022/08/26 01:33:25;;;;;;;21.83;8.95;;;24.30;96.40;;;;;;4955138;28;20059;-73
2022/08/26 01:35:51;;;;;;;19.77;8.30;;;24.30;96.40;;;;;;4971264;28;20109;-74
2022/08/26 01:38:17;;;;;;;22.52;7.78;;;24.30;96.50;;;;;;4993647;28;20031;-74
2022/08/26 01:40:44;;;;;;;14.70;7.32;;;24.30;96.60;;;;;;4994133;28;20078;-75
2022/08/26 01:43:17;;;;;;;15.25;7.93;;;24.30;96.90;;;;;;4992677;28;20113;-74
2022/08/26 01:45:45;;;;;;;16.13;8.07;;;24.30;96.50;;;;;;4992515;28;20065;-74
2022/08/26 01:48:14;;;;;;;;;;;24.40;96.60;;;;;;4993284;28;20487;-74
2022/08/26 01:50:41;;;;;;;17.83;8.80;;;24.40;96.50;;;;;;4993447;28;19921;-74
2022/08/26 01:53:10;;;;;;;26.50;8.65;;;24.40;96.50;;;;;;4992745;28;20434;-74
2022/08/26 01:55:43;;;;;;;16.80;7.55;;;24.40;96.30;;;;;;4993594;28;20105;-73
2022/08/26 01:58:16;;;;;;;21.08;9.10;;;24.40;96.60;;;;;;4993489;28;20034;-74
2022/08/26 02:00:42;;;;;;;19.67;8.35;;;24.40;96.50;;;;;;4993452;28;20379;-73
2022/08/26 02:03:16;;;;;;;17.35;8.68;;;24.20;96.80;;;;;;4993434;28;20104;-74
2022/08/26 02:05:51;;;;;;;20.33;8.63;;;24.30;96.70;;;;;;4993278;28;20038;-72
2022/08/26 02:08:19;;;;;;;23.17;8.38;;;24.30;96.60;;;;;;4992545;28;20015;-74
2022/08/26 02:10:44;;;;;;;26.80;8.77;;;24.30;96.80;;;;;;4993836;28;20057;-74
2022/08/26 02:13:11;;;;;;;16.38;8.23;;;24.20;96.80;;;;;;4993126;28;20037;-74
2022/08/26 02:15:41;;;;;;;22.40;7.97;;;24.20;96.70;;;;;;4993236;28;20036;-73
2022/08/26 02:18:09;;;;;;;21.08;8.63;;;24.20;96.80;;;;;;4993010;28;20073;-74
2022/08/26 02:20:35;;;;;;;24.05;8.68;;;24.20;96.80;;;;;;4993097;28;20112;-74
2022/08/26 02:23:00;;;;;;;18.10;8.48;;;24.20;96.80;;;;;;4993559;28;20034;-74
2022/08/26 02:25:46;;;;;;;20.15;8.02;;;24.20;96.80;;;;;;4992995;28;20034;-74
2022/08/26 02:28:13;;;;;;;16.77;8.25;;;24.20;96.90;;;;;;4992971;28;20580;-75
2022/08/26 02:30:40;;;;;;;18.55;7.60;;;24.10;97.10;;;;;;4992972;28;20034;-74
2022/08/26 02:33:06;;;;;;;21.27;8.32;;;24.10;96.70;;;;;;4992951;28;20045;-73
2022/08/26 02:35:34;;;;;;;20.83;8.32;;;24.00;97.20;;;;;;4992012;28;20053;-74
2022/08/26 02:38:01;;;;;;;17.73;8.15;;;24.00;97.30;;;;;;4992125;28;20027;-74
2022/08/26 02:40:29;;;;;;;20.35;8.30;;;24.00;97.20;;;;;;4992857;28;20058;-74
2022/08/26 02:42:56;;;;;;;23.60;8.15;;;24.00;97.20;;;;;;4992764;28;20440;-74
2022/08/26 02:45:22;;;;;;;23.33;8.48;;;24.00;97.40;;;;;;4992503;28;20043;-74
2022/08/26 02:47:48;;;;;;;17.13;7.93;;;24.00;97.30;;;;;;4992547;28;20472;-74
2022/08/26 02:50:14;;;;;;;21.85;8.20;;;24.00;97.30;;;;;;4992906;28;20533;-74
2022/08/26 02:52:39;;;;;;;24.63;8.77;;;23.90;97.30;;;;;;4992757;28;20196;-74
2022/08/26 02:55:06;;;;;;;20.23;8.93;;;24.00;97.50;;;;;;4992437;28;20094;-73
2022/08/26 02:57:33;;;;;;;20.58;8.05;;;24.00;97.40;;;;;;4992347;28;20066;-74
2022/08/26 03:00:00;;;;;;;25.98;8.30;;;24.00;97.40;;;;;;4992225;28;20035;-74
2022/08/26 03:02:27;;;;;;;23.88;9.45;;;24.00;97.30;;;;;;4992404;28;20026;-75
2022/08/26 03:04:52;;;;;;;18.83;8.57;;;24.00;97.30;;;;;;4992061;28;20503;-74
2022/08/26 03:07:19;;;;;;;63.45;39.00;;;24.00;97.30;;;;;;4992305;28;20113;-74
2022/08/26 03:09:45;;;;;;;28.63;15.98;;;23.90;97.50;;;;;;4991931;28;20049;-75
2022/08/26 03:12:10;;;;;;;23.48;9.07;;;23.90;97.50;;;;;;4991044;28;20476;-74
2022/08/26 03:14:36;;;;;;;21.70;9.13;;;23.80;97.60;;;;;;4992312;28;20027;-74
2022/08/26 03:17:03;;;;;;;22.48;8.65;;;23.90;97.60;;;;;;4992387;28;20444;-74
2022/08/26 03:19:30;;;;;;;26.98;9.32;;;23.90;97.60;;;;;;4992112;28;20338;-73
2022/08/26 03:21:57;;;;;;;17.23;8.05;;;23.80;97.80;;;;;;4992134;28;20040;-73
2022/08/26 03:24:24;;;;;;;28.75;8.35;;;23.80;98.00;;;;;;4991911;28;20057;-74
2022/08/26 03:26:50;;;;;;;19.85;9.05;;;23.70;97.80;;;;;;4991971;28;20121;-74
2022/08/26 03:32:00;;;;;;;14.27;8.50;;;23.60;98.20;;;;;;4992133;28;20064;-74
2022/08/26 03:34:26;;;;;;;19.77;8.15;;;23.60;98.10;;;;;;4991729;28;20031;-74
2022/08/26 03:36:52;;;;;;;22.55;9.50;;;23.60;98.20;;;;;;4991658;28;20119;-74
2022/08/26 03:39:18;;;;;;;23.73;9.13;;;23.60;98.10;;;;;;4990485;28;20510;-72
2022/08/26 03:41:44;;;;;;;20.80;8.70;;;23.60;98.20;;;;;;4991842;28;20108;-74
2022/08/26 03:44:10;;;;;;;23.73;8.65;;;23.50;98.40;;;;;;4992042;28;20023;-73
2022/08/26 03:46:37;;;;;;;25.17;9.18;;;23.50;98.40;;;;;;4991609;28;20039;-73
2022/08/26 03:49:04;;;;;;;21.35;9.25;;;23.50;98.40;;;;;;4991617;28;20037;-73
2022/08/26 03:51:31;;;;;;;24.65;9.43;;;23.50;98.40;;;;;;4990491;28;20049;-74
2022/08/26 03:53:59;;;;;;;23.33;9.32;;;23.50;98.50;;;;;;4991520;28;20501;-74
2022/08/26 03:56:25;;;;;;;30.23;9.43;;;23.50;98.60;;;;;;4991370;28;20038;-74
2022/08/26 03:58:52;;;;;;;25.77;10.00;;;23.40;98.80;;;;;;4991846;28;20018;-74
2022/08/26 04:01:18;;;;;;;21.55;8.95;;;23.50;98.60;;;;;;4990424;28;20146;-75
2022/08/26 04:03:56;;;;;;;16.90;8.88;;;23.50;98.40;;;;;;4990261;28;20030;-74
2022/08/26 04:06:26;;;;;;;24.77;9.60;;;23.40;98.60;;;;;;4991357;28;20133;-75
2022/08/26 04:08:56;;;;;;;24.15;8.93;;;23.40;98.70;;;;;;4991353;28;20034;-74
2022/08/26 04:11:27;;;;;;;21.77;8.32;;;23.40;98.70;;;;;;4989915;28;20050;-75
2022/08/26 04:13:53;;;;;;;30.38;9.20;;;23.30;98.70;;;;;;4991771;28;20429;-74
2022/08/26 04:16:18;;;;;;;24.17;9.15;;;23.40;98.60;;;;;;4993012;28;20026;-74
2022/08/26 04:18:44;;;;;;;17.58;8.75;;;23.30;98.70;;;;;;4994198;28;20369;-74
2022/08/26 04:21:11;;;;;;;30.25;11.15;;;23.30;98.90;;;;;;4995223;28;20030;-73
2022/08/26 04:23:37;;;;;;;19.13;8.98;;;23.30;98.70;;;;;;4995229;28;20061;-74
2022/08/26 04:26:06;;;;;;;25.65;9.60;;;23.30;98.50;;;;;;4995568;28;20160;-74
2022/08/26 04:28:32;;;;;;;24.33;9.55;;;23.30;98.60;;;;;;4994047;28;20034;-74
2022/08/26 04:30:58;;;;;;;16.55;8.27;;;23.30;98.80;;;;;;4995018;28;20037;-74
2022/08/26 04:33:23;;;;;;;23.88;9.90;;;23.20;98.90;;;;;;4994061;28;20419;-73
2022/08/26 04:35:49;;;;;;;21.20;9.00;;;23.30;98.90;;;;;;4994955;28;20034;-73
2022/08/26 04:38:15;;;;;;;35.95;14.80;;;23.30;98.80;;;;;;4994938;28;20477;-72
2022/08/26 04:40:45;;;;;;;36.38;15.63;;;23.30;98.90;;;;;;4995248;28;20056;-74
2022/08/26 04:43:11;;;;;;;27.52;10.35;;;23.30;98.90;;;;;;4995063;28;20034;-74
2022/08/26 04:45:39;;;;;;;26.35;8.55;;;23.20;99.10;;;;;;4994841;28;20043;-74
2022/08/26 04:48:05;;;;;;;25.83;9.38;;;23.20;99.00;;;;;;4994799;28;20035;-74
2022/08/26 04:50:31;;;;;;;21.98;8.70;;;23.20;99.10;;;;;;4994876;28;20083;-75
2022/08/26 04:52:57;;;;;;;20.13;9.23;;;23.10;99.30;;;;;;4995181;28;20038;-74
2022/08/26 04:55:24;;;;;;;23.85;10.20;;;23.20;99.10;;;;;;4994716;28;20042;-75
2022/08/26 04:57:50;;;;;;;26.63;9.73;;;23.10;99.20;;;;;;4993345;28;20373;-74
2022/08/26 05:00:16;;;;;;;26.35;9.63;;;23.10;99.20;;;;;;4994571;28;20464;-74
2022/08/26 05:02:42;;;;;;;19.25;8.95;;;23.20;99.20;;;;;;4994589;28;20040;-75
2022/08/26 05:05:08;;;;;;;24.58;10.48;;;23.20;99.10;;;;;;4993947;28;20429;-75
2022/08/26 05:07:34;;;;;;;22.58;9.63;;;23.30;99.10;;;;;;4994392;28;20496;-75
2022/08/26 05:10:00;;;;;;;33.47;10.68;;;23.30;99.10;;;;;;4994156;28;20109;-75
2022/08/26 05:12:28;;;;;;;20.80;10.32;;;23.30;99.00;;;;;;4994314;28;20070;-75
2022/08/26 05:14:54;;;;;;;23.92;9.90;;;23.20;99.20;;;;;;4994475;28;20469;-75
2022/08/26 05:17:20;;;;;;;24.00;9.25;;;23.20;99.10;;;;;;4993148;28;20041;-75
2022/08/26 05:19:46;;;;;;;31.58;10.38;;;23.30;99.10;;;;;;4994604;28;20216;-74
2022/08/26 05:22:13;;;;;;;22.33;8.82;;;23.30;99.10;;;;;;4994237;28;20113;-73
2022/08/26 05:24:39;;;;;;;22.63;9.20;;;23.30;99.00;;;;;;4993191;28;20141;-74
2022/08/26 05:27:06;;;;;;;30.45;10.95;;;23.30;99.10;;;;;;4993733;28;20030;-74
2022/08/26 05:29:32;;;;;;;22.80;10.45;;;23.30;99.00;;;;;;4994022;28;20022;-75
2022/08/26 05:31:59;;;;;;;32.10;9.82;;;23.30;99.10;;;;;;4994584;28;20034;-75
2022/08/26 05:34:25;;;;;;;27.38;10.52;;;23.30;99.00;;;;;;4992990;28;20200;-76
2022/08/26 05:36:51;;;;;;;22.02;9.68;;;23.40;99.00;;;;;;4993883;28;20085;-75
2022/08/26 05:39:17;;;;;;;25.17;9.55;;;23.40;99.00;;;;;;4993445;28;20121;-75
2022/08/26 05:41:43;;;;;;;36.33;11.93;;;23.40;99.00;;;;;;4993747;28;20548;-74
2022/08/26 05:44:11;;;;;;;25.42;12.20;;;23.40;99.10;;;;;;4994190;28;20097;-75
2022/08/26 05:46:37;;;;;;;;;;;23.40;99.00;;;;;;4992740;28;20035;-75
2022/08/26 05:49:05;;;;;;;46.15;22.70;;;23.40;99.10;;;;;;4992811;28;19913;-75
2022/08/26 05:51:31;;;;;;;25.58;11.38;;;23.40;99.00;;;;;;4992562;28;20070;-72
2022/08/26 05:53:57;;;;;;;21.52;9.35;;;23.40;98.90;;;;;;4993794;28;20058;-74
2022/08/26 05:56:26;;;;;;;28.17;9.20;;;23.30;99.20;;;;;;4993301;28;20034;-73
2022/08/26 05:58:53;;;;;;;25.42;9.02;;;23.40;99.00;;;;;;4993912;28;20423;-74
2022/08/26 06:01:22;;;;;;;39.30;12.53;;;23.50;98.90;;;;;;4993432;28;20031;-74
2022/08/26 06:03:50;;;;;;;34.45;11.23;;;23.50;99.00;;;;;;4992838;28;20065;-75
2022/08/26 06:06:19;;;;;;;29.63;10.23;;;23.50;99.00;;;;;;4992749;28;20508;-74
2022/08/26 06:08:46;;;;;;;28.17;11.13;;;23.60;98.90;;;;;;4993438;28;20031;-74
2022/08/26 06:11:14;;;;;;;23.95;10.15;;;23.60;98.80;;;;;;4993290;28;20054;-75
2022/08/26 06:13:41;;;;;;;30.95;11.43;;;23.50;98.90;;;;;;4993676;28;20108;-79
2022/08/26 06:16:09;;;;;;;28.10;9.32;;;23.50;98.90;;;;;;4992402;28;20118;-77
2022/08/26 06:18:38;;;;;;;18.67;9.45;;;23.50;99.00;;;;;;4993782;28;20050;-77
2022/08/26 06:21:33;;;;;;;31.67;11.07;;;23.50;98.90;;;;;;4985779;28;20105;-77
2022/08/26 06:26:52;;;;;;;23.45;10.57;;;23.50;98.90;;;;;;4993373;28;20592;-76
2022/08/26 06:29:20;;;;;;;29.60;10.63;;;23.60;99.00;;;;;;4993163;28;20018;-79
2022/08/26 06:31:46;;;;;;;16.27;9.68;;;23.60;99.10;;;;;;4993922;28;20018;-76
2022/08/26 06:34:12;;;;;;;25.85;10.38;;;23.60;99.10;;;;;;4993215;28;20034;-78
2022/08/26 06:36:41;;;;;;;37.85;10.77;;;23.60;99.00;;;;;;4993711;28;20034;-78
2022/08/26 06:39:09;;;;;;;26.63;9.77;;;23.60;98.90;;;;;;4991285;28;20092;-79
2022/08/26 06:41:35;;;;;;;;;;;23.60;98.90;;;;;;4993805;28;20061;-77
2022/08/26 06:44:02;;;;;;;28.10;9.75;;;23.60;99.00;;;;;;4993922;28;19905;-81
2022/08/26 06:46:28;;;;;;;36.85;9.85;;;23.70;99.10;;;;;;4992797;28;20413;-82
2022/08/26 06:48:57;;;;;;;26.15;10.48;;;23.70;99.10;;;;;;4994220;28;20405;-79
2022/08/26 06:51:28;;;;;;;32.65;12.45;;;23.70;99.00;;;;;;4994840;28;20064;-80
2022/08/26 06:53:57;;;;;;;29.20;11.00;;;23.70;99.10;;;;;;4963550;28;20035;-77
2022/08/26 06:56:26;;;;;;;28.05;9.85;;;23.70;99.00;;;;;;4955027;28;20106;-81
2022/08/26 06:58:52;;;;;;;29.65;9.80;;;23.80;99.10;;;;;;4954591;28;20325;-87
2022/08/26 07:01:27;;;;;;;37.63;19.02;;;23.80;99.10;;;;;;4954817;28;20023;-90
2022/08/26 07:03:55;;;;;;;25.70;13.07;;;23.80;99.10;;;;;;4955681;28;20035;-82
2022/08/26 07:06:22;;;;;;;27.45;11.57;;;23.80;99.10;;;;;;4954766;28;20035;-82
2022/08/26 07:08:49;;;;;;;26.80;10.43;;;23.80;99.10;;;;;;4954085;28;20125;-84
2022/08/26 07:11:18;;;;;;;31.25;10.77;;;23.80;99.60;;;;;;4954013;28;20047;-82
2022/08/26 07:13:47;;;;;;;34.72;12.02;;;23.80;99.20;;;;;;4955432;29;20035;-86
2022/08/26 07:16:15;;;;;;;27.20;11.57;;;23.70;99.20;;;;;;4954229;28;20066;-82
2022/08/26 07:18:42;;;;;;;31.75;11.32;;;23.80;99.30;;;;;;4954573;28;20039;-79
2022/08/26 07:21:10;;;;;;;31.13;11.00;;;23.80;99.10;;;;;;4953299;28;20035;-81
2022/08/26 07:23:36;;;;;;;31.65;11.38;;;23.80;99.30;;;;;;4954982;28;20027;-84
2022/08/26 07:26:07;;;;;;;32.25;11.60;;;23.90;99.30;;;;;;4955060;29;20084;-84
2022/08/26 07:28:33;;;;;;;31.63;11.05;;;23.90;99.20;;;;;;4954221;28;20095;-80
2022/08/26 07:31:05;;;;;;;32.95;11.50;;;24.00;99.30;;;;;;4953628;28;20106;-81
2022/08/26 07:33:32;;;;;;;30.98;11.07;;;24.00;99.20;;;;;;4961043;28;20042;-85
2022/08/26 07:35:57;;;;;;;29.45;10.68;;;24.10;99.30;;;;;;4961142;28;20043;-82
2022/08/26 07:38:23;;;;;;;26.73;9.77;;;24.10;99.20;;;;;;4968103;28;20011;-86
2022/08/26 07:40:49;;;;;;;30.95;12.82;;;24.10;99.10;;;;;;4967135;28;20051;-86
2022/08/26 07:43:14;;;;;;;32.85;11.60;;;24.10;99.10;;;;;;4961823;28;20050;-81
2022/08/26 07:45:41;;;;;;;29.67;11.00;;;24.20;99.10;;;;;;4961684;28;20046;-86
2022/08/26 07:48:07;;;;;;;30.08;11.32;;;24.20;99.20;;;;;;4962085;28;20103;-81
2022/08/26 07:50:33;;;;;;;35.45;12.77;;;24.20;99.10;;;;;;4968131;28;20023;-86
2022/08/26 07:53:00;;;;;;;29.15;10.65;;;24.30;99.20;;;;;;4971020;29;20023;-85
2022/08/26 07:55:27;;;;;;;39.22;13.30;;;24.30;99.10;;;;;;4969172;28;20039;-84
2022/08/26 07:57:53;;;;;;;33.63;11.90;;;24.30;99.00;;;;;;4961920;28;20043;-85
2022/08/26 08:00:19;;;;;;;28.27;11.00;;;24.40;99.00;;;;;;4961000;29;20351;-84
2022/08/26 08:02:45;;;;;;;29.77;11.43;;;24.40;99.00;;;;;;4958375;28;20047;-85
2022/08/26 08:05:14;;;;;;;24.55;10.80;;;24.40;98.80;;;;;;4959655;29;20106;-84
2022/08/26 08:07:40;;;;;;;35.90;11.75;;;24.50;98.80;;;;;;4961101;29;20474;-84
2022/08/26 08:10:07;;;;;;;35.90;12.27;;;24.60;98.90;;;;;;4960633;28;20190;-87
2022/08/26 08:12:33;;;;;;;28.85;11.55;;;24.60;99.00;;;;;;4961968;28;20046;-85
2022/08/26 08:14:59;;;;;;;43.38;11.05;;;24.60;98.90;;;;;;4969411;28;20020;-86
2022/08/26 08:17:24;;;;;;;33.05;11.82;;;24.80;98.80;;;;;;4962565;28;20058;-82
2022/08/26 08:19:51;;;;;;;26.40;10.80;;;24.80;98.60;;;;;;4961640;29;20034;-88
2022/08/26 08:22:17;;;;;;;22.40;11.30;;;24.80;98.70;;;;;;4963261;28;20067;-78
2022/08/26 08:24:43;;;;;;;26.00;10.43;;;25.00;98.80;;;;;;4953036;28;20051;-82
2022/08/26 08:27:09;;;;;;;36.55;11.88;;;25.30;98.60;;;;;;4958525;28;20102;-85
2022/08/26 08:29:38;;;;;;;30.05;10.68;;;25.60;98.20;;;;;;4956118;28;20469;-79
2022/08/26 08:32:04;;;;;;;25.60;10.30;;;25.80;97.80;;;;;;4968950;28;20035;-92
2022/08/26 08:34:29;;;;;;;26.38;9.88;;;26.00;97.60;;;;;;4954524;28;20111;-85
2022/08/26 08:36:56;;;;;;;29.02;11.00;;;26.20;97.40;;;;;;4956136;28;20130;-88
2022/08/26 08:39:22;;;;;;;31.55;10.55;;;26.50;97.00;;;;;;4954329;28;20042;-82
2022/08/26 08:42:06;;;;;;;22.13;11.70;;;26.80;96.50;;;;;;4968041;28;20027;-81
2022/08/26 08:44:36;;;;;;;41.80;19.40;;;27.10;96.40;;;;;;4955703;28;20367;-86
2022/08/26 08:47:20;;;;;;;36.17;10.57;;;27.40;95.80;;;;;;4962001;29;20106;-89
2022/08/26 08:49:46;;;;;;;28.90;12.93;;;27.80;95.30;;;;;;4958955;29;20135;-80
2022/08/26 08:52:29;;;;;;;21.83;9.48;;;28.20;94.80;;;;;;4951524;28;20126;-78
2022/08/26 08:55:03;;;;;;;25.92;9.90;;;28.80;94.10;;;;;;4952816;28;20054;-81
2022/08/26 08:57:57;;;;;;;25.98;10.38;;;29.10;93.30;;;;;;4952400;28;20054;-83
2022/08/26 09:00:23;;;;;;;19.42;8.60;;;29.40;93.10;;;;;;4954391;28;20054;-82
2022/08/26 09:03:19;;;;;;;28.05;8.73;;;30.00;92.50;;;;;;4954677;28;20366;-75
2022/08/26 09:05:50;;;;;;;31.10;9.03;;;30.70;91.70;;;;;;4956094;28;20040;-80
2022/08/26 09:08:21;;;;;;;20.30;8.98;;;31.20;91.10;;;;;;4955945;28;20353;-77
2022/08/26 09:11:06;;;;;;;27.70;8.65;;;31.30;88.40;;;;;;4956440;28;20137;-83
2022/08/26 09:13:32;;;;;;;23.40;8.13;;;31.50;88.60;;;;;;4956803;28;20305;-80
2022/08/26 09:15:58;;;;;;;28.73;8.30;;;32.10;89.20;;;;;;4955205;28;20108;-79
2022/08/26 09:18:33;;;;;;;33.90;8.43;;;32.50;85.40;;;;;;4971006;28;20418;-82
2022/08/26 09:21:02;;;;;;;31.25;9.15;;;32.90;84.30;;;;;;4955952;28;20046;-81
2022/08/26 09:23:29;;;;;;;24.20;8.50;;;32.90;83.60;;;;;;4956693;28;20090;-86
2022/08/26 09:25:59;;;;;;;31.20;9.35;;;33.20;82.20;;;;;;4959286;28;20031;-86
2022/08/26 09:28:28;;;;;;;35.72;9.55;;;33.20;81.10;;;;;;4957336;28;20050;-87
2022/08/26 09:31:11;;;;;;;29.08;8.60;;;33.30;80.90;;;;;;4965418;28;20039;-81
2022/08/26 09:33:39;;;;;;;28.98;9.18;;;33.40;79.30;;;;;;4975341;28;20049;-82
2022/08/26 09:36:21;;;;;;;;;;;33.60;80.20;;;;;;4974737;28;20437;-79
2022/08/26 09:38:49;;;;;;;27.42;8.85;;;33.50;78.80;;;;;;4975462;28;19985;-79
2022/08/26 09:41:32;;;;;;;25.05;8.57;;;33.50;77.70;;;;;;4975615;28;20034;-82
2022/08/26 09:44:16;;;;;;;21.83;7.93;;;33.90;76.90;;;;;;4975005;28;20377;-82
2022/08/26 09:46:51;;;;;;;31.83;8.48;;;34.20;78.00;;;;;;4975373;28;20049;-84
2022/08/26 09:49:25;;;;;;;29.45;8.70;;;34.70;76.20;;;;;;4974883;28;20051;-82
2022/08/26 09:52:09;;;;;;;25.30;8.38;;;35.20;73.20;;;;;;4975417;28;20038;-84
2022/08/26 09:54:37;;;;;;;21.67;8.73;;;35.10;73.10;;;;;;4990206;28;20093;-83
2022/08/26 09:57:25;;;;;;;28.83;9.40;;;35.00;71.70;;;;;;4973927;28;20131;-80
2022/08/26 09:59:50;;;;;;;26.85;7.93;;;34.70;73.70;;;;;;4974506;28;20362;-81
2022/08/26 10:02:16;;;;;;;26.00;7.05;;;34.50;72.70;;;;;;4974663;28;20464;-80
2022/08/26 10:04:51;;;;;;;24.85;7.75;;;35.10;72.00;;;;;;4975202;28;20100;-80
2022/08/26 10:07:39;;;;;;;35.80;9.50;;;35.20;69.80;;;;;;4974510;28;20154;-79
2022/08/26 10:10:10;;;;;;;29.80;8.65;;;34.80;68.60;;;;;;4974330;28;20043;-80
2022/08/26 10:12:42;;;;;;;30.88;8.02;;;34.80;70.70;;;;;;4974304;28;20067;-81
2022/08/26 10:15:10;;;;;;;25.13;8.15;;;35.20;69.40;;;;;;4989100;28;20042;-81
2022/08/26 10:17:42;;;;;;;37.47;7.30;;;35.40;67.80;;;;;;4974511;28;20124;-81
2022/08/26 10:20:13;;;;;;;35.40;9.70;;;35.00;66.30;;;;;;4973888;28;20181;-80
2022/08/26 10:22:51;;;;;;;42.28;9.75;;;34.60;66.80;;;;;;4989885;28;20039;-81
2022/08/26 10:25:23;;;;;;;35.33;9.13;;;34.70;68.80;;;;;;4973359;28;20050;-83
2022/08/26 10:28:19;;;;;;;27.92;8.02;;;35.00;68.90;;;;;;4974291;28;20046;-81
2022/08/26 10:31:00;;;;;;;33.90;11.53;;;35.50;67.10;;;;;;4989044;28;20449;-82
2022/08/26 10:33:26;;;;;;;31.92;11.13;;;35.20;65.60;;;;;;4974751;28;20038;-85
2022/08/26 10:36:06;;;;;;;36.55;8.93;;;35.20;65.60;;;;;;4973379;28;20469;-78
2022/08/26 10:38:36;;;;;;;34.22;8.75;;;35.30;66.10;;;;;;4974379;28;20093;-79
2022/08/26 10:41:13;;;;;;;33.88;7.82;;;35.60;63.70;;;;;;4975381;28;20092;-78
2022/08/26 10:43:44;;;;;;;31.92;8.95;;;35.40;62.30;;;;;;4973697;28;20026;-77
2022/08/26 10:46:18;;;;;;;29.77;8.15;;;35.30;63.60;;;;;;4972674;28;20050;-86
2022/08/26 10:49:00;;;;;;;44.20;8.38;;;34.80;62.20;;;;;;4974963;28;20357;-83
2022/08/26 10:51:35;;;;;;;38.72;8.40;;;34.40;64.50;;;;;;4973582;28;20035;-80
2022/08/26 10:54:08;;;;;;;39.53;7.68;;;34.10;64.70;;;;;;4974990;28;20404;-85
2022/08/26 10:56:45;;;;;;;33.70;8.18;;;33.90;64.20;;;;;;4974795;28;20034;-86
2022/08/26 10:59:20;;;;;;;;;;;34.40;63.90;;;;;;4990953;28;20022;-85
2022/08/26 11:01:56;;;;;;;29.60;7.45;;;34.70;62.40;;;;;;4973168;28;19953;-80
2022/08/26 11:04:43;;;;;;;25.42;9.32;;;34.50;62.70;;;;;;4972231;28;20122;-81
2022/08/26 11:07:31;;;;;;;;;;;34.50;63.00;;;;;;4973924;28;20109;-76
2022/08/26 11:10:40;;;;;;;30.20;6.93;;;34.60;62.30;;;;;;4972308;28;19926;-80
2022/08/26 11:13:11;;;;;;;29.67;7.10;;;34.10;61.80;;;;;;4970972;28;20039;-80
2022/08/26 11:15:39;;;;;;;28.33;7.57;;;34.10;62.20;;;;;;4972129;28;20392;-81
2022/08/26 11:18:11;;;;;;;26.13;7.32;;;34.00;62.00;;;;;;4988673;28;20042;-81
2022/08/26 11:20:45;;;;;;;29.55;6.63;;;33.90;63.00;;;;;;4973177;28;20037;-79
2022/08/26 11:23:11;;;;;;;29.42;7.55;;;33.80;63.30;;;;;;4973612;28;20330;-75
2022/08/26 11:26:09;;;;;;;24.88;7.00;;;33.60;63.90;;;;;;4972347;28;20093;-76
2022/08/26 11:28:49;;;;;;;23.05;6.55;;;33.50;63.20;;;;;;4966052;28;20165;-89
2022/08/26 11:31:24;;;;;;;34.38;6.75;;;33.50;62.20;;;;;;4975709;28;20474;-86
2022/08/26 11:33:50;;;;;;;32.00;6.90;;;33.30;61.70;;;;;;4989823;28;20026;-81
2022/08/26 11:36:34;;;;;;;24.85;6.75;;;33.10;62.00;;;;;;4973121;28;20035;-83
2022/08/26 11:39:30;;;;;;;38.83;7.57;;;33.10;63.70;;;;;;4972724;28;20035;-81
2022/08/26 11:42:01;;;;;;;25.30;7.03;;;33.10;64.00;;;;;;4972009;28;20058;-83
2022/08/26 11:44:37;;;;;;;38.90;7.82;;;33.30;63.80;;;;;;4972667;28;20050;-81
2022/08/26 11:47:04;;;;;;;28.23;7.10;;;33.20;63.30;;;;;;4973608;28;20031;-90
2022/08/26 11:49:31;;;;;;;34.37;7.53;;;33.00;63.30;;;;;;4972893;28;20042;-78
2022/08/26 11:52:18;;;;;;;31.80;7.55;;;32.80;64.50;;;;;;4972995;28;20042;-78
2022/08/26 11:55:13;;;;;;;46.23;12.97;;;32.60;64.60;;;;;;4973640;28;20244;-78
2022/08/26 11:57:49;;;;;;;41.20;9.85;;;32.60;65.60;;;;;;4968546;28;20296;-78
2022/08/26 12:00:25;;;;;;;28.50;6.78;;;32.60;65.10;;;;;;4972107;28;20118;-78
2022/08/26 12:02:52;;;;;;;26.05;6.88;;;32.60;64.70;;;;;;4972962;28;20097;-81
2022/08/26 12:05:24;;;;;;;25.67;7.05;;;32.60;64.60;;;;;;4973452;28;20446;-79
2022/08/26 12:07:51;;;;;;;36.22;7.25;;;32.60;64.00;;;;;;4978598;28;20077;-82
2022/08/26 12:10:29;;;;;;;26.00;6.50;;;32.40;64.90;;;;;;4981208;28;20496;-82
2022/08/26 12:12:58;;;;;;;29.98;6.97;;;32.20;64.20;;;;;;4979876;28;20027;-82
2022/08/26 12:15:25;;;;;;;33.63;7.68;;;32.30;64.60;;;;;;4979583;28;20050;-84
2022/08/26 12:17:51;;;;;;;31.48;7.55;;;32.10;64.60;;;;;;4982349;28;20054;-83
2022/08/26 12:20:20;;;;;;;25.10;6.80;;;31.90;64.80;;;;;;4982802;28;20042;-78
2022/08/26 12:22:46;;;;;;;38.95;7.28;;;31.80;65.40;;;;;;4981572;28;20054;-79
2022/08/26 12:25:12;;;;;;;19.90;6.60;;;31.80;65.50;;;;;;4978788;28;20039;-85
2022/08/26 12:27:41;;;;;;;24.35;7.05;;;32.00;65.50;;;;;;4981412;28;20045;-85
2022/08/26 12:30:10;;;;;;;30.63;7.47;;;31.80;65.80;;;;;;4978635;28;20069;-82
2022/08/26 12:32:44;;;;;;;69.20;9.40;;;31.90;65.90;;;;;;4973671;28;20050;-82
2022/08/26 12:35:12;;;;;;;30.80;8.27;;;32.00;66.30;;;;;;4974746;28;20019;-81
2022/08/26 12:37:41;;;;;;;27.90;7.25;;;31.90;65.60;;;;;;4975765;28;20038;-80
2022/08/26 12:40:26;;;;;;;30.38;7.90;;;31.80;66.20;;;;;;4979299;28;20031;-83
2022/08/26 12:42:52;;;;;;;20.55;7.10;;;31.70;66.40;;;;;;4977664;28;20027;-79
2022/08/26 12:45:33;;;;;;;23.25;6.95;;;31.40;70.10;;;;;;4975724;28;20042;-82
2022/08/26 12:48:12;;;;;;;24.38;7.32;;;31.50;68.20;;;;;;4976277;28;20033;-77
2022/08/26 12:50:45;;;;;;;29.02;7.75;;;31.60;67.50;;;;;;4975848;28;20487;-75
2022/08/26 12:53:19;;;;;;;28.20;7.80;;;31.70;66.80;;;;;;4976194;28;20111;-76
2022/08/26 12:55:51;;;;;;;23.63;6.90;;;31.70;66.60;;;;;;4975975;28;20122;-82